PWSweather.com
Personal Weather Stations
Station Observations
KWIPARKF
Flambeau River State Forest, Park Falls, WI 54552

Flambeau River State ForestPark Falls, WI 54552

Lat: 45.81943, Lon: -90.61676

Elevation: 1476

Station Type: Davis Vantage Pro2 Plus

Latest ConditionsUpdated 3:50:01 AM CDT Sunday, Sep 22, 2019
Currently Today's Max Today's Min Today's Average
Temperature 67.3°F19.6°C 69.5°F20.8°C 67.1°F19.5°C 68.3°F20.2°C
Dew Point 67.3°F19.6°C 69.5°F20.8°C 66.7°F19.3°C 68.2°F20.1°C
Winds Calm Calm Calm -Calm - - Calm Calm
Wind Gusts -- 1.2 mph1.9 kmh - -
Humidity 100% 100% 97% 100%
Pressure 29.75 in1007.5 mb 29.78 in1008.5 mb 29.75 in1007.5 mb -
Precipitation - 0.09 in2.3 mm - -
Hour Temp Dew Point Humidity Winds Wind Gusts Pressure Precip Precip Rate Daily Precip Total
03:50 AM 67.3°F19.6°C 67.3°F19.6°C 100% Calm Calm -- 29.75 in1007.5 mb - 0.00 in0.0 mm 0.09 in2.3 mm
03:40 AM 67.6°F19.8°C 67.6°F19.8°C 100% Calm Calm -- 29.75 in1007.5 mb - 0.00 in0.0 mm 0.09 in2.3 mm
03:30 AM 67.9°F19.9°C 67.9°F19.9°C 100% Calm Calm 1.2 mph1.9 kmh 29.75 in1007.5 mb - 0.00 in0.0 mm 0.09 in2.3 mm
03:20 AM 68.3°F20.2°C 68.3°F20.2°C 100% Calm Calm -- 29.75 in1007.5 mb - 0.00 in0.0 mm 0.09 in2.3 mm
03:10 AM 68.6°F20.3°C 68.6°F20.3°C 100% Calm Calm 1.2 mph1.9 kmh 29.76 in1007.8 mb - 0.00 in0.0 mm 0.09 in2.3 mm
03:00 AM 68.9°F20.5°C 68.9°F20.5°C 100% Calm Calm -- 29.76 in1007.8 mb - 0.00 in0.0 mm 0.09 in2.3 mm
02:50 AM 69.0°F20.6°C 69.0°F20.6°C 100% Calm Calm -- 29.75 in1007.5 mb - 0.00 in0.0 mm 0.09 in2.3 mm
02:40 AM 69.1°F20.6°C 69.1°F20.6°C 100% Calm Calm -- 29.76 in1007.8 mb - 0.00 in0.0 mm 0.09 in2.3 mm
02:30 AM 69.1°F20.6°C 69.1°F20.6°C 100% Calm Calm 1.2 mph1.9 kmh 29.76 in1007.8 mb - 0.00 in0.0 mm 0.09 in2.3 mm
02:20 AM 69.1°F20.6°C 69.1°F20.6°C 100% Calm Calm -- 29.76 in1007.8 mb - 0.00 in0.0 mm 0.09 in2.3 mm
02:10 AM 69.0°F20.6°C 69.0°F20.6°C 100% Calm Calm -- 29.76 in1007.8 mb - 0.00 in0.0 mm 0.09 in2.3 mm
02:00 AM 68.9°F20.5°C 68.9°F20.5°C 100% Calm Calm -- 29.76 in1007.8 mb - 0.00 in0.0 mm 0.09 in2.3 mm
01:50 AM 68.5°F20.3°C 68.5°F20.3°C 100% Calm Calm -- 29.77 in1008.1 mb - 0.00 in0.0 mm 0.09 in2.3 mm
01:40 AM 68.0°F20.0°C 68.0°F20.0°C 100% Calm Calm -- 29.77 in1008.1 mb - 0.00 in0.0 mm 0.09 in2.3 mm
01:30 AM 67.3°F19.6°C 67.3°F19.6°C 100% Calm Calm -- 29.77 in1008.1 mb - 0.00 in0.0 mm 0.09 in2.3 mm
01:20 AM 67.1°F19.5°C 67.1°F19.5°C 100% Calm Calm -- 29.77 in1008.1 mb - 0.00 in0.0 mm 0.09 in2.3 mm
01:10 AM 67.1°F19.5°C 67.1°F19.5°C 100% Calm Calm -- 29.77 in1008.1 mb - 0.03 in0.8 mm 0.09 in2.3 mm
01:00 AM 67.1°F19.5°C 67.1°F19.5°C 100% Calm Calm -- 29.77 in1008.1 mb - 0.09 in2.3 mm 0.09 in2.3 mm
12:50 AM 67.3°F19.6°C 67.3°F19.6°C 100% Calm Calm -- 29.77 in1008.1 mb - 0.09 in2.3 mm 0.09 in2.3 mm
12:40 AM 67.6°F19.8°C 66.7°F19.3°C 97% Calm Calm -- 29.77 in1008.1 mb - 0.10 in2.5 mm 0.09 in2.3 mm
12:30 AM 68.0°F20.0°C 67.1°F19.5°C 97% Calm Calm -- 29.78 in1008.5 mb - 0.10 in2.5 mm 0.09 in2.3 mm
12:20 AM 68.5°F20.3°C 68.2°F20.1°C 99% Calm Calm -- 29.77 in1008.1 mb - 0.12 in3.0 mm 0.09 in2.3 mm
12:10 AM 69.5°F20.8°C 69.5°F20.8°C 100% Calm Calm -- 29.78 in1008.5 mb - 0.17 in4.3 mm 0.06 in1.5 mm
12:00 AM 69.5°F20.8°C 69.5°F20.8°C 100% Calm Calm -- 29.78 in1008.5 mb - 0.11 in2.8 mm 0.11 in2.8 mm